Time;durP1;ratioP1;P1;durP2;ratioP2;P2;SDS_P1;SDS_P2;PMS_P1;PMS_P2;Temp;Humidity;BMP_temperature;BMP_pressure;BME280_temperature;BME280_humidity;BME280_pressure;Samples;Min_cycle;Max_cycle;Signal;HPM_P1;HPM_P2
2022/02/09 00:04:26;;;;;;;24.23;16.58;;;;;;;2.03;50.72;101188.16;5040770;28;20091;-74
2022/02/09 00:06:49;;;;;;;24.13;12.77;;;;;;;2.29;50.78;101208.38;5041757;28;20123;-74
2022/02/09 00:09:22;;;;;;;20.70;10.68;;;;;;;2.38;50.70;101226.03;5042653;28;20461;-73
2022/02/09 00:14:32;;;;;;;16.50;9.52;;;;;;;2.00;51.91;101167.31;5042140;28;20090;-73
2022/02/09 01:56:59;;;;;;;11.63;5.10;;;;;;;2.88;50.88;101156.56;5043842;28;20051;-74
2022/02/09 01:59:26;;;;;;;12.75;4.97;;;;;;;3.11;50.87;101191.25;5045081;28;20032;-73
2022/02/09 02:01:52;;;;;;;9.35;5.57;;;;;;;2.99;51.08;101190.72;5042453;28;20064;-73
2022/02/09 02:04:22;;;;;;;8.55;5.00;;;;;;;2.97;51.52;101198.44;5041854;28;20043;-73
2022/02/09 02:06:50;;;;;;;8.80;4.90;;;;;;;2.96;50.78;101157.78;5040361;28;20191;-73
2022/02/09 02:09:16;;;;;;;9.32;4.30;;;;;;;3.02;51.55;101145.09;5042816;28;20037;-73
2022/02/09 02:11:52;;;;;;;10.80;5.20;;;;;;;3.12;51.34;101152.44;5060913;28;20372;-72
2022/02/09 02:14:31;;;;;;;7.85;4.93;;;;;;;3.12;51.49;101173.16;5043397;28;20037;-73
2022/02/09 02:59:36;;;;;;;8.00;4.78;;;;;;;3.13;51.03;101184.41;5040157;28;20491;-74
2022/02/09 03:10:34;;;;;;;10.27;5.00;;;;;;;2.95;51.29;101200.97;5045741;28;20036;-74
2022/02/09 03:13:10;;;;;;;8.02;4.45;;;;;;;2.85;51.16;101161.63;5038498;28;20037;-74
2022/02/09 03:15:53;;;;;;;14.48;5.53;;;;;;;2.70;51.47;101173.09;5046658;28;20135;-74
2022/02/09 03:21:26;;;;;;;11.88;5.13;;;;;;;2.94;51.02;101186.22;5045788;28;20557;-73
2022/02/09 03:23:54;;;;;;;7.78;4.25;;;;;;;2.84;50.78;101170.22;5041758;28;20379;-73
2022/02/09 03:51:16;;;;;;;8.80;4.75;;;;;;;2.56;51.85;101170.72;5048091;28;20041;-72
2022/02/09 03:59:28;;;;;;;6.15;4.28;;;;;;;2.72;51.75;101215.50;4985005;28;20042;-73
2022/02/09 04:01:57;;;;;;;11.57;4.95;;;;;;;2.56;52.29;101220.81;4981624;28;20078;-74
2022/02/09 04:04:23;;;;;;;9.55;4.85;;;;;;;2.32;52.41;101177.44;5028207;28;20049;-74
2022/02/09 04:06:49;;;;;;;8.63;4.70;;;;;;;2.37;52.90;101202.69;5048247;28;20102;-74
2022/02/09 04:09:18;;;;;;;8.20;5.35;;;;;;;2.42;53.49;101188.22;5044838;28;20064;-74
2022/02/09 04:11:49;;;;;;;8.70;5.18;;;;;;;2.42;53.42;101190.81;5044346;28;20056;-73
2022/02/09 04:17:05;;;;;;;7.95;4.57;;;;;;;2.04;54.05;101177.00;5045887;28;20140;-74
2022/02/09 04:23:05;;;;;;;9.13;4.97;;;;;;;2.08;54.27;101215.13;5043385;28;20045;-73
2022/02/09 04:42:37;;;;;;;10.18;5.10;;;;;;;2.02;55.53;101227.81;5039618;28;20057;-73
2022/02/09 04:48:28;;;;;;;8.20;5.15;;;;;;;2.39;54.12;101239.84;5044152;28;20033;-73
2022/02/09 04:56:39;;;;;;;9.40;5.60;;;;;;;2.22;54.46;101246.84;5047854;28;20537;-75
2022/02/09 05:26:04;;;;;;;9.32;6.03;;;;;;;2.38;55.06;101275.22;5038194;28;20566;-73
2022/02/09 05:28:29;;;;;;;10.77;5.57;;;;;;;2.87;55.91;101305.13;5043891;28;20198;-74
2022/02/09 05:30:55;;;;;;;10.63;5.68;;;;;;;2.64;54.18;101284.22;5041272;28;20124;-74
2022/02/09 05:33:22;;;;;;;13.55;7.07;;;;;;;2.51;54.74;101261.16;5041522;28;20363;-73
2022/02/09 05:35:48;;;;;;;13.25;5.55;;;;;;;2.41;54.84;101283.16;5041394;28;20039;-74
2022/02/09 05:38:15;;;;;;;10.40;5.45;;;;;;;2.54;55.24;101294.97;5041863;28;20472;-73
2022/02/09 05:40:41;;;;;;;8.40;4.95;;;;;;;2.60;55.57;101295.28;5041847;28;20076;-74
2022/02/09 05:43:08;;;;;;;11.48;6.25;;;;;;;2.42;55.65;101304.78;5040878;28;20052;-76
2022/02/09 06:01:35;;;;;;;13.95;6.55;;;;;;;2.45;55.72;101316.16;5038412;28;19916;-74
2022/02/09 06:04:01;;;;;;;15.10;6.57;;;;;;;2.31;55.03;101315.50;5041434;28;20045;-73
2022/02/09 06:06:27;;;;;;;11.43;6.32;;;;;;;2.04;55.54;101294.34;5037329;28;20040;-74
2022/02/09 06:08:54;;;;;;;16.95;6.90;;;;;;;2.36;55.02;101301.88;5037454;28;24123;-75
2022/02/09 06:11:25;;;;;;;10.25;5.60;;;;;;;2.45;54.31;101323.91;5038303;28;20043;-73
2022/02/09 06:14:13;;;;;;;13.05;7.03;;;;;;;2.50;54.17;101321.53;5038740;28;20039;-74
2022/02/09 06:22:01;;;;;;;14.48;7.18;;;;;;;2.43;55.29;101340.19;5037432;28;20048;-74
2022/02/09 06:24:26;;;;;;;12.25;6.97;;;;;;;2.58;55.74;101309.84;5039479;28;20064;-73
2022/02/09 06:26:52;;;;;;;14.32;7.88;;;;;;;2.44;55.34;101329.94;5035685;28;20029;-74
2022/02/09 06:29:18;;;;;;;13.55;6.70;;;;;;;2.80;54.40;101329.88;5042610;28;20029;-73
2022/02/09 06:31:46;;;;;;;18.25;6.47;;;;;;;2.85;54.18;101315.41;5036980;28;20128;-73
2022/02/09 06:34:13;;;;;;;19.77;8.07;;;;;;;2.34;53.88;101309.56;5055374;28;20098;-74
2022/02/09 06:36:43;;;;;;;11.07;6.90;;;;;;;2.68;55.47;101298.22;5037970;28;20037;-73
2022/02/09 06:39:10;;;;;;;10.98;6.32;;;;;;;2.64;53.48;101332.56;5039677;28;20111;-73
2022/02/09 06:41:36;;;;;;;14.20;7.20;;;;;;;2.66;54.01;101312.78;5040343;28;20087;-72
2022/02/09 06:44:03;;;;;;;11.57;6.90;;;;;;;2.76;54.34;101333.13;5041207;28;20040;-73
2022/02/09 06:46:33;;;;;;;14.75;6.68;;;;;;;2.48;53.30;101300.78;5041798;28;20389;-74
2022/02/09 06:49:04;;;;;;;12.32;7.05;;;;;;;2.78;53.64;101310.75;5046532;28;20033;-73
2022/02/09 06:51:34;;;;;;;10.00;6.97;;;;;;;2.83;52.91;101318.75;5039215;28;20041;-71
2022/02/09 06:54:08;;;;;;;17.63;6.70;;;;;;;3.06;52.68;101331.06;5041585;28;20558;-71
2022/02/09 06:57:00;;;;;;;11.73;6.68;;;;;;;3.06;53.07;101302.53;5044144;28;20028;-69
2022/02/09 06:59:30;;;;;;;12.48;6.55;;;;;;;3.12;53.26;101291.56;5042458;28;20237;-69
2022/02/09 07:02:05;;;;;;;12.02;8.77;;;;;;;3.21;53.40;101284.19;5045093;28;20071;-69
2022/02/09 07:04:36;;;;;;;14.32;7.00;;;;;;;3.22;52.97;101311.88;5045048;28;20035;-70
2022/02/09 07:07:02;;;;;;;16.67;7.85;;;;;;;3.33;52.76;101330.53;5026161;28;20551;-69
2022/02/09 07:09:29;;;;;;;17.10;7.43;;;;;;;3.09;53.01;101344.19;5045198;28;20045;-69
2022/02/09 07:11:55;;;;;;;13.32;6.97;;;;;;;3.25;52.67;101317.19;5029022;28;20028;-69
2022/02/09 07:14:25;;;;;;;27.50;7.18;;;;;;;2.96;53.13;101341.84;5062357;28;20047;-69
2022/02/09 07:16:51;;;;;;;22.13;7.60;;;;;;;2.61;53.31;101330.72;5044109;28;20246;-69
2022/02/09 07:19:17;;;;;;;15.40;8.00;;;;;;;2.71;54.13;101314.78;5045825;28;20099;-70
2022/02/09 07:21:43;;;;;;;19.15;8.07;;;;;;;3.24;52.68;101345.69;5044404;28;20504;-69
2022/02/09 07:24:19;;;;;;;14.70;7.07;;;;;;;3.37;53.29;101359.25;5042666;28;20045;-69
2022/02/09 07:29:11;;;;;;;16.13;7.82;;;;;;;3.17;52.34;101335.03;5046583;28;20044;-69
2022/02/09 07:31:37;;;;;;;14.93;7.13;;;;;;;3.76;52.09;101374.78;5041965;28;20488;-69
2022/02/09 07:34:03;;;;;;;17.15;6.63;;;;;;;4.09;51.80;101376.16;5045642;28;20076;-70
2022/02/09 07:36:31;;;;;;;13.65;6.82;;;;;;;4.05;50.62;101372.56;5045364;28;20135;-70
2022/02/09 07:38:57;;;;;;;10.73;7.22;;;;;;;3.78;51.12;101351.50;5051164;28;20025;-71
2022/02/09 07:41:24;;;;;;;17.05;7.18;;;;;;;3.93;50.91;101333.97;5050284;28;20023;-71
2022/02/09 07:51:42;;;;;;;10.05;6.88;;;;;;;4.16;49.99;101392.03;5042170;28;20045;-71
2022/02/09 07:54:12;;;;;;;14.18;8.40;;;;;;;4.33;50.54;101408.34;5040326;28;20543;-70
2022/02/09 07:56:40;;;;;;;13.70;7.32;;;;;;;4.15;49.89;101413.66;5048021;28;20060;-74
2022/02/09 07:59:10;;;;;;;14.43;8.88;;;;;;;4.30;50.05;101418.59;5046292;28;20052;-75
2022/02/09 08:01:38;;;;;;;17.42;8.52;;;;;;;3.95;50.34;101415.41;5043156;28;20048;-74
2022/02/09 08:04:04;;;;;;;13.45;8.02;;;;;;;4.10;50.36;101422.09;5041535;28;20899;-74
2022/02/09 08:06:31;;;;;;;15.52;8.60;;;;;;;4.32;50.84;101403.09;5047200;28;20040;-73
2022/02/09 08:09:02;;;;;;;16.20;9.30;;;;;;;4.05;50.55;101408.00;5040229;28;20059;-73
2022/02/09 08:11:37;;;;;;;11.77;7.55;;;;;;;3.97;50.94;101423.25;5042255;28;20308;-74
2022/02/09 08:33:16;;;;;;;18.35;9.50;;;;;;;4.38;50.98;101425.03;5040098;28;20055;-75
2022/02/09 08:35:41;;;;;;;17.20;8.20;;;;;;;4.47;50.75;101431.41;5042056;28;20033;-75
2022/02/09 08:38:07;;;;;;;31.20;9.15;;;;;;;4.37;49.68;101418.03;5044299;28;20051;-74
2022/02/09 08:40:35;;;;;;;18.98;10.23;;;;;;;4.66;49.83;101439.16;5039283;28;20064;-75
2022/02/09 08:43:01;;;;;;;11.50;7.88;;;;;;;4.16;49.68;101418.03;5037799;28;20065;-76
2022/02/09 08:45:27;;;;;;;17.33;10.10;;;;;;;4.51;49.22;101434.19;5044114;28;20110;-75
2022/02/09 08:47:53;;;;;;;16.48;8.77;;;;;;;4.35;49.60;101436.97;5037389;28;20025;-74
2022/02/09 08:50:20;;;;;;;16.90;9.70;;;;;;;4.67;48.89;101447.84;5042418;28;20086;-73
2022/02/09 08:52:48;;;;;;;20.83;9.15;;;;;;;4.82;48.67;101446.75;5040574;28;20028;-74
2022/02/09 08:55:14;;;;;;;17.08;10.10;;;;;;;5.02;47.89;101442.31;5046156;28;20053;-73
2022/02/09 08:57:40;;;;;;;17.60;8.98;;;;;;;5.21;47.95;101430.91;5043864;28;20040;-75
2022/02/09 09:00:17;;;;;;;14.40;9.23;;;;;;;5.11;47.41;101439.19;5044983;28;20053;-76
2022/02/09 09:02:47;;;;;;;15.40;10.07;;;;;;;5.20;47.47;101446.47;5043854;28;20029;-74
2022/02/09 09:05:20;;;;;;;21.50;9.82;;;;;;;5.50;46.87;101441.50;5044426;28;20050;-74
2022/02/09 09:07:52;;;;;;;18.80;9.80;;;;;;;5.44;46.90;101436.97;5047040;28;20048;-74
2022/02/09 09:10:26;;;;;;;14.40;9.30;;;;;;;5.74;46.23;101433.72;5045322;28;20098;-75
2022/02/09 09:18:59;;;;;;;15.95;11.30;;;;;;;6.11;45.85;101433.34;5041950;28;20036;-74
2022/02/09 10:14:08;;;;;;;13.88;8.60;;;;;;;8.08;42.49;101410.59;5030151;28;20504;-75
2022/02/09 10:34:15;;;;;;;12.88;7.80;;;;;;;9.39;41.05;101383.16;5044042;28;20037;-70
2022/02/09 10:37:02;;;;;;;25.35;9.02;;;;;;;9.85;40.76;101389.28;5044419;28;20031;-71
2022/02/09 10:40:00;;;;;;;22.00;11.52;;;;;;;9.94;40.62;101381.59;5058391;28;20617;-70
2022/02/09 10:42:45;;;;;;;13.13;8.57;;;;;;;10.25;40.34;101399.59;5041915;28;20045;-71
2022/02/09 10:45:47;;;;;;;15.95;8.95;;;;;;;10.55;39.97;101417.63;5040554;28;20056;-70
2022/02/09 10:48:38;;;;;;;10.00;5.95;;;;;;;10.55;39.51;101402.78;5047570;28;20052;-71
2022/02/09 10:51:22;;;;;;;12.10;6.30;;;;;;;10.91;39.01;101371.78;5060054;28;20020;-71
2022/02/09 10:54:08;;;;;;;10.70;5.57;;;;;;;10.68;38.19;101372.38;5047772;28;20021;-72
2022/02/09 10:56:35;;;;;;;9.48;5.45;;;;;;;11.49;37.76;101364.66;5041713;28;20025;-72
2022/02/09 10:59:07;;;;;;;11.85;5.20;;;;;;;11.97;37.11;101360.84;5038474;28;20059;-72
2022/02/09 11:01:35;;;;;;;9.00;5.90;;;;;;;11.74;37.32;101376.34;5041164;28;20037;-71
2022/02/09 11:04:00;;;;;;;11.73;5.32;;;;;;;10.66;38.50;101366.19;5043373;28;20041;-70
2022/02/09 11:06:32;;;;;;;13.95;4.90;;;;;;;10.23;39.17;101351.47;5040242;28;20045;-76
2022/02/09 11:08:58;;;;;;;9.68;4.20;;;;;;;10.94;37.82;101385.88;5074109;28;20064;-75
2022/02/09 11:11:24;;;;;;;20.50;5.22;;;;;;;11.86;36.54;101356.31;5044441;28;20743;-74
2022/02/09 11:13:50;;;;;;;9.77;5.70;;;;;;;11.33;37.16;101379.38;5039280;28;20056;-74
2022/02/09 11:16:17;;;;;;;7.55;4.57;;;;;;;11.25;37.28;101351.25;5057411;28;20091;-75
2022/02/09 11:18:49;;;;;;;8.25;4.75;;;;;;;11.24;37.15;101338.97;5043644;28;20075;-74
2022/02/09 11:21:24;;;;;;;11.38;5.90;;;;;;;11.04;38.33;101380.75;5041264;28;20060;-74
2022/02/09 11:23:55;;;;;;;9.50;4.57;;;;;;;11.33;37.78;101367.97;5039259;28;20026;-75
2022/02/09 11:26:31;;;;;;;10.07;5.10;;;;;;;11.10;37.53;101349.31;5035810;28;20077;-74
2022/02/09 11:35:35;;;;;;;14.48;6.18;;;;;;;12.30;35.28;101343.56;5042211;28;20536;-75
2022/02/09 11:37:59;;;;;;;17.33;6.20;;;;;;;12.48;35.34;101377.06;5040346;28;20069;-74
2022/02/09 11:40:35;;;;;;;13.15;6.35;;;;;;;12.62;35.38;101361.38;5047122;28;20603;-74
2022/02/09 11:43:39;;;;;;;10.02;5.32;;;;;;;12.59;34.56;101350.81;5043587;28;20055;-74
2022/02/09 11:46:27;;;;;;;;;;;;;;;12.80;35.44;101382.53;5046428;28;20037;-73
2022/02/09 11:52:01;;;;;;;8.40;4.18;;;;;;;12.43;34.69;101362.97;5043475;28;20049;-73
2022/02/09 12:11:33;;;;;;;13.27;4.60;;;;;;;11.91;35.67;101358.13;5048973;28;20179;-74
2022/02/09 12:14:20;;;;;;;6.85;3.35;;;;;;;11.62;35.74;101349.94;5072991;28;20041;-74
2022/02/09 12:19:28;;;;;;;10.32;4.70;;;;;;;11.16;36.71;101334.50;5045396;28;20036;-72
2022/02/09 12:22:10;;;;;;;6.80;4.13;;;;;;;10.73;37.45;101343.56;5047474;28;20076;-74
2022/02/09 12:24:37;;;;;;;10.17;4.40;;;;;;;11.20;36.51;101346.81;5045923;28;20381;-77
2022/02/09 12:27:14;;;;;;;9.45;4.28;;;;;;;11.42;35.85;101344.44;5040516;28;20048;-75
2022/02/09 12:30:12;;;;;;;6.35;3.40;;;;;;;11.72;36.18;101358.78;5061590;28;20033;-74
2022/02/09 12:32:37;;;;;;;6.30;4.13;;;;;;;11.61;35.64;101341.16;5060596;28;20351;-74
2022/02/09 12:35:08;;;;;;;12.93;4.72;;;;;;;11.52;35.71;101338.44;5037748;28;20108;-75
2022/02/09 12:37:39;;;;;;;8.88;3.67;;;;;;;11.87;35.08;101356.38;5049025;28;20037;-75
2022/02/09 12:40:12;;;;;;;6.35;3.55;;;;;;;11.78;35.27;101329.94;5043004;28;20422;-75
2022/02/09 12:42:43;;;;;;;9.73;4.25;;;;;;;11.92;36.35;101338.88;5043501;28;20047;-74
2022/02/09 12:45:14;;;;;;;9.18;4.43;;;;;;;12.20;34.91;101357.53;5044508;28;20124;-74
2022/02/09 12:47:42;;;;;;;7.88;3.75;;;;;;;12.24;35.42;101365.47;5041955;28;20518;-76
2022/02/09 12:50:14;;;;;;;7.05;3.22;;;;;;;12.36;35.10;101353.25;5046215;28;20095;-75
2022/02/09 12:52:42;;;;;;;8.88;3.60;;;;;;;12.53;34.45;101363.94;5041343;28;20069;-74
2022/02/09 12:55:11;;;;;;;8.05;4.07;;;;;;;12.63;35.33;101376.28;5042367;28;20060;-74
2022/02/09 12:57:40;;;;;;;10.05;3.92;;;;;;;12.17;35.23;101363.63;5045883;28;20038;-74
2022/02/09 13:00:21;;;;;;;18.25;4.97;;;;;;;12.36;35.09;101372.59;5044361;28;20045;-74
2022/02/09 13:02:47;;;;;;;9.52;3.70;;;;;;;12.52;34.75;101356.91;5041452;28;20036;-74
2022/02/09 13:05:32;;;;;;;6.05;3.28;;;;;;;12.21;34.64;101368.06;5044463;28;20099;-74
2022/02/09 13:08:35;;;;;;;11.52;2.97;;;;;;;12.19;34.22;101367.16;5043768;28;20067;-73
2022/02/09 13:11:20;;;;;;;4.33;2.77;;;;;;;12.38;34.09;101362.94;5006587;28;20049;-74
2022/02/09 13:13:57;;;;;;;7.90;2.83;;;;;;;12.47;34.13;101346.34;5043313;28;20462;-73
2022/02/09 13:16:44;;;;;;;6.70;2.55;;;;;;;12.09;34.79;101367.09;5057437;28;20345;-74
2022/02/09 13:20:29;;;;;;;5.18;3.28;;;;;;;12.22;34.37;101340.91;5044096;28;20056;-73
2022/02/09 14:05:20;;;;;;;10.52;3.60;;;;;;;12.09;34.77;101367.97;5038054;28;21374;-73
2022/02/09 14:54:56;;;;;;;5.40;2.75;;;;;;;11.27;36.33;101378.44;5041455;28;20449;-74
2022/02/09 14:57:30;;;;;;;7.63;3.45;;;;;;;11.14;36.38;101377.38;5040735;28;20090;-75
2022/02/09 15:00:15;;;;;;;7.93;2.67;;;;;;;11.05;36.22;101382.50;5042999;28;20037;-74
2022/02/09 15:08:09;;;;;;;6.88;3.47;;;;;;;10.19;39.23;101410.00;5037437;28;20037;-74
2022/02/09 15:10:53;;;;;;;5.90;3.85;;;;;;;9.93;39.96;101405.19;5044238;28;20175;-74
2022/02/09 15:19:06;;;;;;;8.88;4.18;;;;;;;9.56;40.80;101409.69;5044595;28;20039;-75
2022/02/09 15:22:18;;;;;;;9.25;3.42;;;;;;;9.61;40.94;101443.84;5042063;28;20041;-74
2022/02/09 15:24:40;;;;;;;;;;;;;;;;;;;;;
2022/02/09 15:27:10;;;;;;;6.20;3.13;;;;;;;9.40;41.59;101457.38;5041867;28;20076;-74
2022/02/09 15:30:43;;;;;;;9.50;3.97;;;;;;;9.15;41.66;101432.38;5046169;28;20107;-74
2022/02/09 15:33:08;;;;;;;6.97;3.88;;;;;;;9.28;41.73;101465.84;5044642;28;20053;-74
2022/02/09 15:35:38;;;;;;;7.35;4.13;;;;;;;9.04;42.06;101434.78;5026146;28;20154;-73
2022/02/09 15:38:37;;;;;;;3.97;2.50;;;;;;;8.87;42.36;101447.44;5048872;28;20574;-74
2022/02/09 15:41:17;;;;;;;4.63;2.33;;;;;;;8.52;42.52;101420.44;5062991;28;20094;-74
2022/02/09 16:06:11;;;;;;;9.52;6.07;;;;;;;8.03;43.73;101475.81;5045659;28;20102;-74
2022/02/09 16:46:23;;;;;;;13.00;6.95;;;;;;;7.83;45.58;101543.19;5048107;28;20048;-73
2022/02/09 16:52:15;;;;;;;13.13;6.70;;;;;;;7.12;47.11;101537.53;5048056;28;20047;-74
2022/02/09 17:18:56;;;;;;;13.02;8.18;;;;;;;7.65;46.79;101575.72;5043636;28;20041;-74
2022/02/09 17:21:23;;;;;;;14.50;9.18;;;;;;;7.52;46.92;101561.41;5044019;28;20043;-76
2022/02/09 17:23:51;;;;;;;15.80;9.63;;;;;;;7.56;46.40;101569.38;5044234;28;20055;-75
2022/02/09 17:26:17;;;;;;;14.38;8.35;;;;;;;7.60;46.40;101581.69;5029248;28;20472;-74
2022/02/09 17:28:44;;;;;;;16.70;8.27;;;;;;;7.67;45.81;101563.59;5043229;28;20033;-74
2022/02/09 17:36:42;;;;;;;14.00;8.15;;;;;;;7.25;46.53;101562.28;5047711;28;20045;-75
2022/02/09 17:57:55;;;;;;;11.20;8.48;;;;;;;6.66;48.35;101589.91;5041797;28;20071;-74
2022/02/09 18:00:21;;;;;;;14.80;9.45;;;;;;;6.75;48.37;101600.66;5025791;28;20455;-73
2022/02/09 18:02:53;;;;;;;21.27;13.23;;;;;;;6.88;48.07;101604.56;5045381;28;20033;-73
2022/02/09 18:11:48;;;;;;;19.48;11.60;;;;;;;7.27;48.08;101631.09;4985662;28;20058;-73
2022/02/09 18:44:43;;;;;;;18.52;14.18;;;;;;;6.91;48.77;101646.44;5047538;28;20122;-74
2022/02/09 19:01:13;;;;;;;28.25;14.30;;;;;;;6.00;51.60;101634.41;5050393;28;20044;-70
2022/02/09 19:03:41;;;;;;;18.73;15.52;;;;;;;6.16;51.58;101677.53;5043234;28;20055;-71
2022/02/09 19:06:19;;;;;;;22.10;14.55;;;;;;;6.05;51.66;101684.97;5048522;28;20033;-74
2022/02/09 19:14:34;;;;;;;19.80;14.02;;;;;;;6.16;50.45;101644.59;5057080;28;20070;-74
2022/02/09 19:17:19;;;;;;;20.50;14.45;;;;;;;6.52;50.10;101670.25;5049303;28;20088;-74
2022/02/09 19:30:58;;;;;;;32.38;15.38;;;;;;;5.52;53.96;101666.34;5043273;28;20392;-74
2022/02/09 19:42:26;;;;;;;26.35;14.57;;;;;;;5.92;52.51;101713.13;5047247;28;20028;-74
2022/02/09 19:47:18;;;;;;;18.25;14.70;;;;;;;5.69;53.33;101699.16;5045814;28;20037;-74
2022/02/09 19:52:18;;;;;;;28.50;15.38;;;;;;;5.28;54.12;101682.72;5042022;28;20383;-76
2022/02/09 19:57:37;;;;;;;32.78;14.85;;;;;;;5.27;54.38;101687.88;5052008;28;20044;-74
2022/02/09 20:00:07;;;;;;;17.90;12.05;;;;;;;5.21;54.53;101688.50;5044610;28;20461;-74
2022/02/09 20:02:33;;;;;;;21.05;12.55;;;;;;;5.07;55.17;101689.63;5064820;28;20043;-74
2022/02/09 20:04:58;;;;;;;28.73;14.88;;;;;;;5.18;55.14;101701.38;5058722;28;20434;-74
2022/02/09 20:07:24;;;;;;;25.25;15.63;;;;;;;5.33;54.45;101715.84;5038842;28;20041;-75
2022/02/09 20:09:50;;;;;;;20.85;13.35;;;;;;;5.75;53.52;101713.25;5042628;28;20464;-74
2022/02/09 20:12:16;;;;;;;21.80;14.65;;;;;;;5.26;54.18;101696.50;5042140;28;20055;-76
2022/02/09 20:15:04;;;;;;;17.40;13.10;;;;;;;5.23;53.99;101689.44;5061879;28;20037;-74
2022/02/09 20:17:38;;;;;;;21.00;14.13;;;;;;;5.37;54.20;101729.06;5062698;28;20032;-75
2022/02/09 20:20:04;;;;;;;26.75;15.07;;;;;;;5.40;54.00;101721.38;5041597;28;20036;-74
2022/02/09 20:23:12;;;;;;;25.75;17.42;;;;;;;5.48;53.43;101708.72;5044455;28;20068;-75
2022/02/09 20:25:37;;;;;;;24.80;16.88;;;;;;;5.56;53.58;101717.72;5047280;28;20048;-74
2022/02/09 20:28:05;;;;;;;26.90;16.48;;;;;;;4.88;55.87;101703.53;5043383;28;20414;-75
2022/02/09 20:30:39;;;;;;;28.80;19.48;;;;;;;4.94;55.94;101701.22;5052160;28;20036;-76
2022/02/09 20:43:27;;;;;;;32.03;22.23;;;;;;;5.48;55.00;101721.72;5050750;28;20055;-74
2022/02/09 20:46:01;;;;;;;30.85;18.38;;;;;;;5.53;53.97;101714.09;5045105;28;20044;-70
2022/02/09 20:48:27;;;;;;;34.55;19.60;;;;;;;5.56;53.43;101696.00;5048249;28;20037;-74
2022/02/09 20:51:12;;;;;;;29.92;20.17;;;;;;;5.57;55.05;101731.59;5047828;28;20032;-74
2022/02/09 20:53:37;;;;;;;23.83;17.42;;;;;;;4.94;58.31;101723.72;5037058;28;20106;-74
2022/02/09 20:56:03;;;;;;;34.10;22.00;;;;;;;4.79;58.01;101706.63;5051711;28;20083;-73
2022/02/09 21:02:04;;;;;;;35.88;22.27;;;;;;;4.37;58.92;101687.38;5051321;28;20103;-74
2022/02/09 21:04:32;;;;;;;30.15;20.33;;;;;;;4.68;58.48;101704.34;5051623;28;20112;-74
2022/02/09 21:12:15;;;;;;;29.73;22.00;;;;;;;4.73;58.41;101705.44;5048988;28;20020;-73
2022/02/09 21:15:39;;;;;;;27.58;21.65;;;;;;;4.85;58.96;101735.50;5047637;28;20025;-74
2022/02/09 21:18:32;;;;;;;41.35;21.52;;;;;;;4.91;58.61;101728.78;5028393;28;20049;-73
2022/02/09 21:31:25;;;;;;;37.88;23.13;;;;;;;4.30;60.60;101701.78;5040418;28;20033;-73
2022/02/09 21:41:34;;;;;;;46.53;26.88;;;;;;;4.35;60.01;101705.47;5039728;28;20028;-73
2022/02/09 21:55:20;;;;;;;26.73;18.65;;;;;;;4.53;58.18;101701.97;5038520;28;20100;-75
2022/02/09 21:57:14;;;;;;;28.58;19.70;;;;;;;4.68;58.16;101733.84;5032052;28;20734;-73
2022/02/09 22:26:47;;;;;;;24.92;17.73;;;;;;;4.31;60.08;101731.25;5039806;28;20086;-73
2022/02/09 22:45:32;;;;;;;21.83;15.13;;;;;;;4.73;58.60;101734.97;5037456;28;20043;-74
2022/02/09 22:48:22;;;;;;;21.25;14.70;;;;;;;4.52;60.54;101773.84;5037382;28;20104;-74
2022/02/09 22:50:59;;;;;;;22.88;15.43;;;;;;;4.46;59.62;101762.28;5035920;28;20078;-75
2022/02/09 22:56:12;;;;;;;25.27;17.17;;;;;;;4.43;60.66;101781.22;5038673;28;20075;-75
2022/02/09 22:58:38;;;;;;;26.88;17.70;;;;;;;4.30;60.88;101763.25;5056227;28;20487;-74
2022/02/09 23:01:13;;;;;;;29.50;20.55;;;;;;;4.64;59.78;101763.13;5057763;28;20037;-74
2022/02/09 23:17:03;;;;;;;35.20;22.88;;;;;;;4.19;60.35;101760.16;5026963;28;20380;-74
